Главная страница
METAR-TAF:

METAR-TAF

Аэропорты :

Тегеран, Иран

Мехрабад

широта: 35-41N, долгота: 051-21E, высота над уровнем моря: 1204 м

Текущие метеонаблюдения

Эта сводка был подготовлена 17 минут назад, в 07:30 UTC
Ветер 4 Узел от южный
Температура 13°C
Влажность 41%
Давление 1017 hPa
Видимость: 4000 м
небольшая облачность на высоте 3000 фута
Отдельные облака на высоте 10000 фута
мгла

METAR: OIII 240730Z 19004KT 4000 HZ FEW030 SCT100 13/M00 Q1017 A3004 NOSIG

Время: 11:17 (07:47 UTC)

Прогноз

Эта сводка был подготовлена 2 часа и 37 минут назад, в 05:10 UTC
Прогноз действительный с 24-го 06 UTC до 25-го 12 UTC
Ветер 10 Узел от западный
Видимость: 8000 м
небольшая облачность на высоте 4000 фута
временами
С 25-го 00 UTC до 25-го 04 UTC
Видимость: 4000 м
мгла
изменения
С 25-го 06 UTC до 25-го 07 UTC
Ветер 8 Узел от юго-восточный

TAF: OIII 240510Z 2406/2512 26005MPS 8000 FEW040 TEMPO 2500/2504 4000 HZ BECMG 2506/2507 13004MPS

Метеонаблюдения и прогнозы для более 4000 аэропортов (сводки METAR и TAF).

Имеющиеся станции представлены на карте желтыми и красными точками.

Чтобы увидеть название станции, наведите на нее мышь.

Затем щелкните, чтобы увидеть метеонаблюдения и метеопрогнозы.

Управление картой: чтобы увеличить масштаб, щелкните зеленые кнопки с черным крестиком; чтобы уменьшить масштаб, щелкните зеленую кнопку с тире; для просмотра соседних карт щелкайте зеленые стрелки.


METAR-TAF: